Time;durP1;ratioP1;P1;durP2;ratioP2;P2;SDS_P1;SDS_P2;PMS_P1;PMS_P2;Temp;Humidity;BMP_temperature;BMP_pressure;BME280_temperature;BME280_humidity;BME280_pressure;Samples;Min_cycle;Max_cycle;Signal;HPM_P1;HPM_P2
2021/01/20 00:00:49;;;;;;;18.42;13.45;;;7.10;99.90;;;;;;4112957;28;20030;-74
2021/01/20 00:02:50;;;;;;;20.33;12.43;;;7.10;99.90;;;;;;4113462;28;20486;-74
2021/01/20 00:04:50;;;;;;;17.08;13.05;;;7.10;99.90;;;;;;4127966;28;20034;-74
2021/01/20 00:06:51;;;;;;;20.80;13.77;;;7.10;99.90;;;;;;4113279;28;20026;-75
2021/01/20 00:08:52;;;;;;;16.40;11.75;;;7.00;99.90;;;;;;4112107;28;20113;-74
2021/01/20 00:10:52;;;;;;;19.75;14.13;;;7.10;99.90;;;;;;4113299;28;20121;-74
2021/01/20 00:12:53;;;;;;;18.85;13.23;;;7.00;99.90;;;;;;4111742;28;20031;-74
2021/01/20 00:14:53;;;;;;;19.45;12.57;;;7.00;99.90;;;;;;4113260;28;20623;-74
2021/01/20 00:16:54;;;;;;;24.55;16.17;;;7.00;99.90;;;;;;4113204;28;20070;-74
2021/01/20 00:18:55;;;;;;;18.30;14.20;;;6.90;99.90;;;;;;4111905;28;20062;-75
2021/01/20 00:20:55;;;;;;;22.63;15.88;;;6.90;99.90;;;;;;4111746;28;20092;-75
2021/01/20 00:22:56;;;;;;;20.48;13.35;;;6.80;99.90;;;;;;4127669;28;20077;-74
2021/01/20 00:24:56;;;;;;;20.45;13.07;;;6.70;99.90;;;;;;4113149;28;20019;-74
2021/01/20 00:26:57;;;;;;;20.48;13.40;;;6.70;99.90;;;;;;4111797;28;20082;-74
2021/01/20 00:28:58;;;;;;;19.45;13.75;;;6.70;99.90;;;;;;4113191;28;20027;-74
2021/01/20 00:30:59;;;;;;;16.33;12.27;;;6.70;99.90;;;;;;4111584;28;20106;-75
2021/01/20 00:32:59;;;;;;;27.42;13.52;;;6.70;99.90;;;;;;4112621;28;20027;-75
2021/01/20 00:35:01;;;;;;;25.05;15.82;;;6.70;99.90;;;;;;4111742;28;20483;-74
2021/01/20 00:37:01;;;;;;;18.45;12.20;;;6.60;99.90;;;;;;4112516;28;20102;-74
2021/01/20 00:39:03;;;;;;;20.45;11.93;;;6.70;99.90;;;;;;4111718;28;20387;-74
2021/01/20 00:41:04;;;;;;;19.50;11.40;;;6.70;99.90;;;;;;4113154;28;20031;-75
2021/01/20 00:43:04;;;;;;;20.73;12.82;;;6.80;99.90;;;;;;4112868;28;20042;-74
2021/01/20 00:45:06;;;;;;;16.83;11.13;;;6.80;99.90;;;;;;4113140;28;20031;-74
2021/01/20 00:47:07;;;;;;;19.73;13.18;;;6.80;99.90;;;;;;4112909;28;20105;-74
2021/01/20 00:49:07;;;;;;;17.52;13.07;;;6.80;99.90;;;;;;4112587;28;20039;-74
2021/01/20 00:51:08;;;;;;;16.63;13.45;;;6.80;99.90;;;;;;4127293;28;20030;-74
2021/01/20 00:53:09;;;;;;;18.60;13.23;;;6.80;99.90;;;;;;4113130;28;20027;-74
2021/01/20 00:55:12;;;;;;;22.20;12.38;;;6.80;99.90;;;;;;4111249;28;20545;-74
2021/01/20 00:57:12;;;;;;;18.58;11.73;;;6.80;99.90;;;;;;4112668;28;20030;-74
2021/01/20 00:59:13;;;;;;;16.70;10.93;;;6.80;99.90;;;;;;4127421;28;20073;-74
2021/01/20 01:01:13;;;;;;;16.20;10.15;;;6.90;99.90;;;;;;4111615;28;20034;-74
2021/01/20 01:03:14;;;;;;;15.52;11.10;;;6.90;99.90;;;;;;4113212;28;20126;-74
2021/01/20 01:05:15;;;;;;;16.38;10.82;;;6.90;99.90;;;;;;4115653;28;20589;-74
2021/01/20 01:07:15;;;;;;;13.55;9.50;;;6.90;99.90;;;;;;4113785;28;20038;-74
2021/01/20 01:09:16;;;;;;;13.55;10.18;;;6.90;99.90;;;;;;4113969;28;20134;-74
2021/01/20 01:11:17;;;;;;;20.17;11.98;;;6.80;99.90;;;;;;4114336;28;20438;-74
2021/01/20 01:13:19;;;;;;;15.48;11.60;;;6.80;99.90;;;;;;4112818;28;20027;-74
2021/01/20 01:15:20;;;;;;;16.20;11.38;;;6.80;99.90;;;;;;4112974;28;20093;-74
2021/01/20 01:17:20;;;;;;;14.38;11.32;;;6.90;99.90;;;;;;4129071;28;20031;-74
2021/01/20 01:19:21;;;;;;;17.15;10.27;;;6.90;99.90;;;;;;4112820;28;20035;-74
2021/01/20 01:21:21;;;;;;;16.08;9.77;;;6.90;99.90;;;;;;4114236;28;20031;-75
2021/01/20 01:23:22;;;;;;;13.80;9.82;;;6.90;99.90;;;;;;4114079;28;20027;-74
2021/01/20 01:25:22;;;;;;;16.73;11.23;;;6.90;99.90;;;;;;4114166;28;20034;-74
2021/01/20 01:27:23;;;;;;;15.98;11.27;;;6.90;99.90;;;;;;4113847;28;20038;-74
2021/01/20 01:29:23;;;;;;;16.40;11.70;;;7.00;99.90;;;;;;4112612;28;20027;-74
2021/01/20 01:31:24;;;;;;;12.38;10.02;;;7.00;99.90;;;;;;4114122;28;20475;-74
2021/01/20 01:33:26;;;;;;;16.50;10.85;;;6.90;99.90;;;;;;4114061;28;20026;-75
2021/01/20 01:35:27;;;;;;;22.05;11.93;;;7.00;99.90;;;;;;4114843;28;20049;-75
2021/01/20 01:37:27;;;;;;;18.05;11.20;;;7.00;99.90;;;;;;4115146;28;20050;-74
2021/01/20 01:39:28;;;;;;;9.68;6.60;;;6.90;99.90;;;;;;4115377;28;20367;-74
2021/01/20 01:41:29;;;;;;;13.45;10.60;;;6.90;99.90;;;;;;4113935;28;20077;-74
2021/01/20 01:43:29;;;;;;;11.25;8.77;;;7.00;99.90;;;;;;4115278;28;20026;-75
2021/01/20 01:45:30;;;;;;;18.20;10.45;;;6.90;99.90;;;;;;4113913;28;20058;-74
2021/01/20 01:47:31;;;;;;;15.63;10.07;;;6.90;99.90;;;;;;4115085;28;20030;-73
2021/01/20 01:49:32;;;;;;;17.40;11.10;;;7.00;99.90;;;;;;4115407;28;20097;-74
2021/01/20 01:51:32;;;;;;;13.70;9.10;;;7.00;99.90;;;;;;4107308;28;20031;-74
2021/01/20 01:53:33;;;;;;;15.45;9.52;;;6.90;99.90;;;;;;4111043;28;20141;-74
2021/01/20 01:55:36;;;;;;;17.95;11.40;;;6.90;99.90;;;;;;4114998;28;20031;-74
2021/01/20 01:57:38;;;;;;;14.85;10.45;;;6.90;99.90;;;;;;4107637;28;20036;-74
2021/01/20 01:59:39;;;;;;;15.13;9.52;;;6.90;99.90;;;;;;4138620;28;20698;-74
2021/01/20 02:01:40;;;;;;;18.73;12.35;;;7.00;99.90;;;;;;4121296;28;20032;-74
2021/01/20 02:03:41;;;;;;;16.17;10.57;;;6.90;99.90;;;;;;4120646;28;20053;-74
2021/01/20 02:05:42;;;;;;;20.70;12.18;;;6.90;99.90;;;;;;4120617;28;20026;-74
2021/01/20 02:07:46;;;;;;;16.63;10.32;;;6.80;99.90;;;;;;4122413;28;20022;-73
2021/01/20 02:09:50;;;;;;;14.90;9.15;;;6.80;99.90;;;;;;4122993;28;20045;-74
2021/01/20 02:12:04;;;;;;;15.80;9.80;;;6.90;99.90;;;;;;4121336;28;20089;-74
2021/01/20 02:14:17;;;;;;;22.73;11.27;;;6.90;99.90;;;;;;4119271;28;20407;-74
2021/01/20 02:16:27;;;;;;;20.33;10.65;;;6.90;99.90;;;;;;4111393;28;20029;-74
2021/01/20 02:18:31;;;;;;;12.77;7.88;;;6.80;99.90;;;;;;4123282;28;20038;-74
2021/01/20 02:20:54;;;;;;;16.85;8.73;;;6.80;99.90;;;;;;4121891;28;20386;-74
2021/01/20 02:22:57;;;;;;;13.55;8.88;;;6.90;99.90;;;;;;4111636;28;20027;-75
2021/01/20 02:25:13;;;;;;;14.70;10.00;;;6.90;99.90;;;;;;4124104;28;20114;-74
2021/01/20 02:27:25;;;;;;;19.27;11.18;;;6.90;99.90;;;;;;4120610;28;20061;-74
2021/01/20 02:29:35;;;;;;;13.60;11.25;;;6.80;99.90;;;;;;4121904;28;20027;-75
2021/01/20 02:31:39;;;;;;;15.13;9.68;;;6.80;99.90;;;;;;4111580;28;20037;-75
2021/01/20 02:33:46;;;;;;;16.42;10.68;;;6.70;99.90;;;;;;4124274;28;20425;-73
2021/01/20 02:35:53;;;;;;;14.50;10.98;;;6.70;99.90;;;;;;4136642;28;20634;-75
2021/01/20 02:37:55;;;;;;;21.52;11.45;;;6.70;99.90;;;;;;4152781;28;20061;-75
2021/01/20 02:39:57;;;;;;;18.70;10.93;;;6.80;99.90;;;;;;4123956;28;20033;-75
2021/01/20 02:42:04;;;;;;;20.33;12.23;;;6.70;99.90;;;;;;4124328;28;20019;-74
2021/01/20 02:44:06;;;;;;;15.55;10.80;;;6.70;99.90;;;;;;4136158;28;20584;-75
2021/01/20 02:46:06;;;;;;;9.68;7.13;;;6.70;99.90;;;;;;4119989;28;20644;-74
2021/01/20 02:48:07;;;;;;;14.15;10.88;;;6.60;99.90;;;;;;4120321;28;20057;-74
2021/01/20 02:50:09;;;;;;;15.30;11.18;;;6.60;99.90;;;;;;4123508;28;20054;-74
2021/01/20 02:52:15;;;;;;;15.55;10.98;;;6.60;99.90;;;;;;4115638;28;20027;-74
2021/01/20 02:54:19;;;;;;;15.50;11.02;;;6.60;99.90;;;;;;4112736;28;20034;-74
2021/01/20 02:56:23;;;;;;;25.63;12.05;;;6.60;99.90;;;;;;4112714;28;20113;-75
2021/01/20 02:58:32;;;;;;;16.75;12.10;;;6.60;99.90;;;;;;4112770;28;20027;-74
2021/01/20 03:00:34;;;;;;;19.23;12.88;;;6.60;99.90;;;;;;4112527;28;20026;-75
2021/01/20 03:02:38;;;;;;;19.17;12.32;;;6.50;99.90;;;;;;4124274;28;20113;-74
2021/01/20 03:04:43;;;;;;;18.05;13.02;;;6.50;99.90;;;;;;4144695;28;20025;-74
2021/01/20 03:06:46;;;;;;;17.00;12.98;;;6.50;99.90;;;;;;4128345;28;20018;-74
2021/01/20 03:08:48;;;;;;;15.55;11.63;;;6.50;99.90;;;;;;4130084;28;20040;-75
2021/01/20 03:10:48;;;;;;;19.88;12.60;;;6.50;99.90;;;;;;4129875;28;20092;-74
2021/01/20 03:12:49;;;;;;;21.67;11.95;;;6.50;99.90;;;;;;4129622;28;20034;-74
2021/01/20 03:14:52;;;;;;;16.50;10.32;;;6.50;99.90;;;;;;4129973;28;20668;-74
2021/01/20 03:16:53;;;;;;;20.40;11.60;;;6.50;99.90;;;;;;4129885;28;20041;-74
2021/01/20 03:18:53;;;;;;;18.13;12.82;;;6.50;99.90;;;;;;4144330;28;20099;-75
2021/01/20 03:20:54;;;;;;;18.95;12.45;;;6.60;99.90;;;;;;4128345;28;20092;-74
2021/01/20 03:22:55;;;;;;;14.35;10.95;;;6.50;99.90;;;;;;4144506;28;20425;-74
2021/01/20 03:24:57;;;;;;;15.85;10.90;;;6.60;99.90;;;;;;4129668;28;20065;-74
2021/01/20 03:26:57;;;;;;;16.85;11.82;;;6.60;99.90;;;;;;4128610;28;20034;-74
2021/01/20 03:28:58;;;;;;;18.20;12.85;;;6.60;99.90;;;;;;4129877;28;20443;-74
2021/01/20 03:30:58;;;;;;;17.13;12.00;;;6.60;99.90;;;;;;4127879;28;20058;-75
2021/01/20 03:32:59;;;;;;;15.20;10.32;;;6.70;99.90;;;;;;4124976;28;20034;-74
2021/01/20 03:35:00;;;;;;;16.88;11.57;;;6.70;99.90;;;;;;4128365;28;20636;-74
2021/01/20 03:37:02;;;;;;;19.20;11.45;;;6.70;99.90;;;;;;4129659;28;20030;-74
2021/01/20 03:39:03;;;;;;;15.13;11.38;;;6.70;99.90;;;;;;4129306;28;20385;-75
2021/01/20 03:41:04;;;;;;;14.95;11.82;;;6.70;99.90;;;;;;4129384;28;20105;-74
2021/01/20 03:43:04;;;;;;;13.90;8.95;;;6.70;99.90;;;;;;4144153;28;20022;-74
2021/01/20 03:45:06;;;;;;;14.45;9.90;;;6.70;99.90;;;;;;4129425;28;20050;-74
2021/01/20 03:47:06;;;;;;;17.83;10.30;;;6.70;99.90;;;;;;4129128;28;20482;-75
2021/01/20 03:49:07;;;;;;;16.80;11.27;;;6.70;99.90;;;;;;4127882;28;20053;-74
2021/01/20 03:51:07;;;;;;;12.38;9.15;;;6.70;99.90;;;;;;4126520;28;20482;-74
2021/01/20 03:53:08;;;;;;;12.45;9.02;;;6.70;99.90;;;;;;4122736;28;20390;-74
2021/01/20 03:55:09;;;;;;;13.27;9.63;;;6.70;99.90;;;;;;4129427;28;20068;-74
2021/01/20 03:57:10;;;;;;;15.30;9.07;;;6.70;99.90;;;;;;4129448;28;20026;-75
2021/01/20 03:59:10;;;;;;;12.73;9.45;;;6.80;99.90;;;;;;4128122;28;20473;-75
2021/01/20 04:01:11;;;;;;;14.65;9.75;;;6.80;99.90;;;;;;4144192;28;20060;-74
2021/01/20 04:03:11;;;;;;;16.15;9.05;;;6.80;99.90;;;;;;4129569;28;20042;-74
2021/01/20 04:05:12;;;;;;;12.82;9.32;;;6.80;99.90;;;;;;4129312;28;20512;-74
2021/01/20 04:07:13;;;;;;;16.85;9.35;;;6.90;99.90;;;;;;4129256;28;20026;-75
2021/01/20 04:09:13;;;;;;;12.20;7.60;;;6.90;99.90;;;;;;4129065;28;20038;-74
2021/01/20 04:11:14;;;;;;;16.00;8.80;;;6.90;99.90;;;;;;4127898;28;20044;-75
2021/01/20 04:13:15;;;;;;;14.63;9.05;;;7.00;99.90;;;;;;4129342;28;20497;-74
2021/01/20 04:15:15;;;;;;;15.35;10.00;;;7.00;99.90;;;;;;4127911;28;20690;-75
2021/01/20 04:17:16;;;;;;;14.32;9.10;;;7.00;99.90;;;;;;4143827;28;20037;-75
2021/01/20 04:19:17;;;;;;;10.38;6.65;;;7.00;99.90;;;;;;4127820;28;20419;-74
2021/01/20 04:21:17;;;;;;;12.18;7.85;;;7.00;99.90;;;;;;4129163;28;20077;-74
2021/01/20 04:23:18;;;;;;;12.18;8.93;;;7.10;99.90;;;;;;4128862;28;20046;-74
2021/01/20 04:25:19;;;;;;;10.15;8.48;;;7.10;99.90;;;;;;4129109;28;20377;-75
2021/01/20 04:27:19;;;;;;;13.73;8.40;;;7.20;99.90;;;;;;4129150;28;20050;-75
2021/01/20 04:29:20;;;;;;;9.85;5.88;;;7.20;99.90;;;;;;4128707;28;20027;-75
2021/01/20 04:31:20;;;;;;;11.98;8.80;;;7.20;99.90;;;;;;4128886;28;20030;-75
2021/01/20 04:33:21;;;;;;;11.52;7.82;;;7.30;99.90;;;;;;4124129;28;20048;-75
2021/01/20 04:35:22;;;;;;;12.82;9.20;;;7.30;99.90;;;;;;4128884;28;20130;-75
2021/01/20 04:37:23;;;;;;;10.65;6.80;;;7.30;99.90;;;;;;4127679;28;20474;-74
2021/01/20 04:39:23;;;;;;;12.55;7.30;;;7.30;99.90;;;;;;4146183;28;20552;-75
2021/01/20 04:41:24;;;;;;;17.45;9.00;;;7.30;99.90;;;;;;4132222;28;20401;-75
2021/01/20 04:43:25;;;;;;;15.65;8.68;;;7.40;99.90;;;;;;4132581;28;20034;-75
2021/01/20 04:45:26;;;;;;;12.32;9.38;;;7.40;99.90;;;;;;4147116;28;20022;-75
2021/01/20 04:47:32;;;;;;;10.30;8.07;;;7.40;99.90;;;;;;4132082;28;20080;-75
2021/01/20 04:49:37;;;;;;;10.15;7.90;;;7.40;99.90;;;;;;4131719;28;20045;-75
2021/01/20 04:51:40;;;;;;;12.65;7.93;;;7.40;99.90;;;;;;4130549;28;20088;-74
2021/01/20 04:53:41;;;;;;;12.57;7.30;;;7.40;99.90;;;;;;4130581;28;20031;-74
2021/01/20 04:55:43;;;;;;;12.40;8.43;;;7.50;99.90;;;;;;4131965;28;20026;-74
2021/01/20 04:57:44;;;;;;;15.98;8.45;;;7.50;99.90;;;;;;4131623;28;20414;-75
2021/01/20 04:59:45;;;;;;;13.15;8.23;;;7.50;99.90;;;;;;4130853;28;20026;-74
2021/01/20 05:01:49;;;;;;;10.65;8.35;;;7.60;99.90;;;;;;4129157;28;20030;-74
2021/01/20 05:03:52;;;;;;;12.50;7.00;;;7.60;99.90;;;;;;4130908;28;20034;-74
2021/01/20 05:05:54;;;;;;;;;;;7.60;99.90;;;;;;4131032;28;20050;-74
2021/01/20 05:07:54;;;;;;;11.70;7.80;;;7.70;99.90;;;;;;4130610;28;20553;-75
2021/01/20 05:09:55;;;;;;;19.75;8.77;;;7.80;99.90;;;;;;4130217;28;20088;-74
2021/01/20 05:11:56;;;;;;;8.95;7.25;;;7.70;99.90;;;;;;4130456;28;20027;-74
2021/01/20 05:14:17;;;;;;;15.57;8.00;;;7.80;99.90;;;;;;4145508;28;20053;-74
2021/01/20 05:16:27;;;;;;;16.33;8.38;;;7.80;99.90;;;;;;4128546;28;20042;-74
2021/01/20 05:18:27;;;;;;;9.02;7.35;;;7.80;99.90;;;;;;4128944;28;20031;-74
2021/01/20 05:20:33;;;;;;;12.98;7.80;;;7.80;99.90;;;;;;4130293;28;20026;-74
2021/01/20 05:22:33;;;;;;;11.15;7.90;;;7.80;99.90;;;;;;4129084;28;20022;-74
2021/01/20 05:24:38;;;;;;;9.90;6.85;;;7.80;99.90;;;;;;4144974;28;20026;-74
2021/01/20 05:26:45;;;;;;;9.70;7.50;;;7.80;99.90;;;;;;4128871;28;20062;-74
2021/01/20 05:28:45;;;;;;;9.25;6.47;;;7.80;99.90;;;;;;4145188;28;20554;-74
2021/01/20 05:30:57;;;;;;;9.23;7.03;;;7.80;99.90;;;;;;4129504;28;20038;-75
2021/01/20 05:32:59;;;;;;;8.65;6.13;;;7.80;99.90;;;;;;4126377;28;20068;-74
2021/01/20 05:35:06;;;;;;;10.60;7.03;;;7.80;99.90;;;;;;4129412;28;20516;-75
2021/01/20 05:37:11;;;;;;;12.18;7.55;;;7.80;99.90;;;;;;4130876;28;20034;-75
2021/01/20 05:39:18;;;;;;;8.70;7.47;;;7.80;99.90;;;;;;4130909;28;20569;-74
2021/01/20 05:41:27;;;;;;;8.95;7.22;;;7.80;99.90;;;;;;4146178;28;20401;-75
2021/01/20 05:43:28;;;;;;;14.10;8.77;;;7.80;99.90;;;;;;4130204;28;20086;-75
2021/01/20 05:45:29;;;;;;;15.23;8.20;;;7.80;99.90;;;;;;4130083;28;20061;-75
2021/01/20 05:47:29;;;;;;;7.53;6.35;;;7.80;99.90;;;;;;4145075;28;20025;-75
2021/01/20 05:49:30;;;;;;;10.95;6.63;;;7.70;99.90;;;;;;4130099;28;20448;-74
2021/01/20 05:51:42;;;;;;;12.35;6.72;;;7.70;99.90;;;;;;4130434;28;20115;-75
2021/01/20 05:53:53;;;;;;;9.38;6.85;;;7.70;99.90;;;;;;4110618;28;20537;-74
2021/01/20 05:56:02;;;;;;;8.00;5.90;;;7.80;99.90;;;;;;4117373;28;20015;-74
2021/01/20 05:58:03;;;;;;;8.32;6.55;;;7.80;99.90;;;;;;4116861;28;20023;-73
2021/01/20 06:00:15;;;;;;;7.88;5.35;;;7.80;99.90;;;;;;4116007;28;20058;-76
2021/01/20 06:02:17;;;;;;;7.28;6.03;;;7.90;99.90;;;;;;4116247;28;20033;-74
2021/01/20 06:04:20;;;;;;;10.30;6.85;;;7.90;99.90;;;;;;4115617;28;20058;-73
2021/01/20 06:06:21;;;;;;;10.60;7.22;;;7.90;99.90;;;;;;4115941;28;21570;-73
2021/01/20 06:08:23;;;;;;;9.85;6.97;;;7.90;99.90;;;;;;4115729;28;20035;-73
2021/01/20 06:10:24;;;;;;;10.02;7.10;;;7.90;99.90;;;;;;4126462;28;20688;-73
2021/01/20 06:12:25;;;;;;;12.90;6.72;;;7.90;99.90;;;;;;4128698;28;20038;-74
2021/01/20 06:14:25;;;;;;;10.60;6.50;;;7.80;99.90;;;;;;4130773;28;20471;-74
2021/01/20 06:16:29;;;;;;;9.38;7.78;;;7.90;99.90;;;;;;4145891;28;20044;-74
2021/01/20 06:18:36;;;;;;;7.70;6.75;;;7.90;99.90;;;;;;4130955;28;20457;-74
2021/01/20 06:20:38;;;;;;;9.75;6.25;;;7.90;99.90;;;;;;4131031;28;20030;-74
2021/01/20 06:22:48;;;;;;;9.23;6.90;;;7.90;99.90;;;;;;4130663;28;20034;-74
2021/01/20 06:24:50;;;;;;;9.38;6.60;;;7.90;99.90;;;;;;4130559;28;20034;-74
2021/01/20 06:26:57;;;;;;;8.60;6.20;;;7.90;99.90;;;;;;4129375;28;20030;-74
2021/01/20 06:29:08;;;;;;;7.80;5.28;;;7.90;99.90;;;;;;4129802;28;20034;-74
2021/01/20 06:31:09;;;;;;;8.23;6.10;;;7.90;99.90;;;;;;4143711;28;20057;-75
2021/01/20 06:33:14;;;;;;;6.90;5.90;;;7.90;99.90;;;;;;4125871;28;20023;-74
2021/01/20 06:35:18;;;;;;;9.65;6.45;;;7.90;99.90;;;;;;4129616;28;20035;-73
2021/01/20 06:37:39;;;;;;;7.88;5.13;;;8.00;99.90;;;;;;4130597;28;20031;-73
2021/01/20 06:39:40;;;;;;;7.65;5.10;;;8.00;99.90;;;;;;4129278;28;20030;-74
2021/01/20 06:41:40;;;;;;;9.15;5.63;;;8.00;99.90;;;;;;4129248;28;20056;-74
2021/01/20 06:43:44;;;;;;;7.35;5.85;;;8.00;99.90;;;;;;4130396;28;20035;-73
2021/01/20 06:46:12;;;;;;;8.50;5.95;;;8.00;99.90;;;;;;4145249;28;20034;-74
2021/01/20 06:48:13;;;;;;;9.00;5.82;;;8.10;99.90;;;;;;4128189;28;20085;-75
2021/01/20 06:50:13;;;;;;;8.90;5.40;;;8.10;99.90;;;;;;4130299;28;20031;-74
2021/01/20 06:52:15;;;;;;;7.05;5.43;;;8.10;99.90;;;;;;4129708;28;20541;-75
2021/01/20 06:54:16;;;;;;;8.52;5.93;;;8.10;99.90;;;;;;4128369;28;20137;-75
2021/01/20 06:56:41;;;;;;;9.93;5.30;;;8.10;99.90;;;;;;4129762;28;20031;-73
2021/01/20 06:58:42;;;;;;;7.07;5.50;;;8.10;99.90;;;;;;4143619;28;20037;-73
2021/01/20 07:00:42;;;;;;;9.57;5.75;;;8.10;99.90;;;;;;4128748;28;20057;-75
2021/01/20 07:03:03;;;;;;;8.45;5.72;;;8.10;99.90;;;;;;4126979;28;20022;-74
2021/01/20 07:05:05;;;;;;;8.23;5.80;;;8.10;99.90;;;;;;4128432;28;20029;-73
2021/01/20 07:07:10;;;;;;;14.13;6.40;;;8.20;99.90;;;;;;4143724;28;20026;-73
2021/01/20 07:09:13;;;;;;;6.95;4.63;;;8.20;99.90;;;;;;4130066;28;20101;-75
2021/01/20 07:11:15;;;;;;;6.72;5.35;;;8.20;99.90;;;;;;4129330;28;20085;-74
2021/01/20 07:13:18;;;;;;;7.72;6.75;;;8.20;99.90;;;;;;4128588;28;20553;-73
2021/01/20 07:15:19;;;;;;;6.40;4.40;;;8.20;99.90;;;;;;4129459;28;20035;-73
2021/01/20 07:17:20;;;;;;;7.85;6.15;;;8.20;99.90;;;;;;4129709;28;20034;-74
2021/01/20 07:19:25;;;;;;;7.13;5.47;;;8.20;99.90;;;;;;4125124;28;20097;-73
2021/01/20 07:21:26;;;;;;;7.30;4.95;;;8.10;99.90;;;;;;4106491;28;20031;-74
2021/01/20 07:23:27;;;;;;;5.75;4.70;;;8.20;99.90;;;;;;4098526;28;20502;-74
2021/01/20 07:25:28;;;;;;;8.52;5.60;;;8.20;99.90;;;;;;4102116;28;20038;-74
2021/01/20 07:27:28;;;;;;;6.47;5.50;;;8.20;99.90;;;;;;4106826;28;20035;-75
2021/01/20 07:29:30;;;;;;;9.00;5.28;;;8.20;99.90;;;;;;4115882;28;20051;-75
2021/01/20 07:31:31;;;;;;;6.13;4.75;;;8.20;99.90;;;;;;4105080;28;20054;-74
2021/01/20 07:33:32;;;;;;;8.60;5.93;;;8.20;99.90;;;;;;4103228;28;20031;-74
2021/01/20 07:35:33;;;;;;;9.00;5.03;;;8.20;99.90;;;;;;4118699;28;20034;-74
2021/01/20 07:37:33;;;;;;;7.32;6.50;;;8.10;99.90;;;;;;4103723;28;20471;-74
2021/01/20 07:39:34;;;;;;;6.00;4.35;;;8.10;99.90;;;;;;4133420;28;20053;-74
2021/01/20 07:41:35;;;;;;;7.47;4.50;;;8.10;99.90;;;;;;4103931;28;20471;-75
2021/01/20 07:43:36;;;;;;;6.22;5.10;;;8.10;99.90;;;;;;4104626;28;20213;-75
2021/01/20 07:45:39;;;;;;;8.13;4.65;;;8.20;99.90;;;;;;4103796;28;20106;-75
2021/01/20 07:47:49;;;;;;;;;;;8.20;99.90;;;;;;4096298;28;20046;-75
2021/01/20 07:49:53;;;;;;;24.05;8.10;;;8.20;99.90;;;;;;4088883;28;20432;-75
2021/01/20 07:52:10;;;;;;;6.50;5.43;;;8.20;99.90;;;;;;4096019;28;20030;-74
2021/01/20 07:54:11;;;;;;;6.88;5.53;;;8.30;99.90;;;;;;4094879;28;20039;-75
2021/01/20 07:56:11;;;;;;;7.95;5.03;;;8.30;99.90;;;;;;4127070;28;20062;-75
2021/01/20 07:58:13;;;;;;;5.40;4.72;;;8.30;99.90;;;;;;4096455;28;20070;-74
2021/01/20 08:00:14;;;;;;;7.00;5.30;;;8.30;99.90;;;;;;4085356;28;20038;-74
2021/01/20 08:02:15;;;;;;;5.53;4.90;;;8.30;99.90;;;;;;4089738;28;20046;-74
2021/01/20 08:04:21;;;;;;;7.30;5.03;;;8.30;99.90;;;;;;4103620;28;20036;-73
2021/01/20 08:06:23;;;;;;;8.70;4.85;;;8.30;99.90;;;;;;4093305;28;20035;-73
2021/01/20 08:08:23;;;;;;;9.15;4.78;;;8.30;99.90;;;;;;4113480;28;20035;-74
2021/01/20 08:10:24;;;;;;;8.40;5.05;;;8.30;99.90;;;;;;4102138;28;20402;-73
2021/01/20 08:12:28;;;;;;;6.07;5.32;;;8.30;99.90;;;;;;4112433;28;20034;-74
2021/01/20 08:14:28;;;;;;;;;;;8.30;99.90;;;;;;4112709;28;20065;-75
2021/01/20 08:16:33;;;;;;;7.95;5.18;;;8.30;99.90;;;;;;4111718;28;19918;-75
2021/01/20 08:18:35;;;;;;;6.47;5.20;;;8.30;99.90;;;;;;4125857;28;20061;-73
2021/01/20 08:20:36;;;;;;;7.22;5.75;;;8.20;99.90;;;;;;4125590;28;20061;-73
2021/01/20 08:22:47;;;;;;;6.97;4.90;;;8.20;99.90;;;;;;4102086;28;20035;-75
2021/01/20 08:24:49;;;;;;;5.78;5.13;;;8.20;99.90;;;;;;4098004;28;20032;-75
2021/01/20 08:27:00;;;;;;;6.97;5.30;;;8.20;99.90;;;;;;4095094;28;20031;-73
2021/01/20 08:29:10;;;;;;;6.93;5.35;;;8.30;99.90;;;;;;4102823;28;20093;-74
2021/01/20 08:31:28;;;;;;;7.43;6.22;;;8.20;99.90;;;;;;4100635;28;20043;-74
2021/01/20 08:33:29;;;;;;;7.10;5.85;;;8.20;99.90;;;;;;4097322;28;20106;-73
2021/01/20 08:35:35;;;;;;;7.80;4.70;;;8.30;99.90;;;;;;4094185;28;20046;-74
2021/01/20 08:37:38;;;;;;;11.02;5.53;;;8.30;99.90;;;;;;4097430;28;20027;-74
2021/01/20 08:39:52;;;;;;;6.95;5.80;;;8.30;99.90;;;;;;4099815;28;20031;-74
2021/01/20 08:42:34;;;;;;;6.10;4.80;;;8.20;99.90;;;;;;4084437;28;20032;-74
2021/01/20 08:44:34;;;;;;;6.70;5.43;;;8.20;99.90;;;;;;4107358;28;20038;-74
2021/01/20 08:46:35;;;;;;;6.00;4.70;;;8.20;99.90;;;;;;4093932;28;20023;-74
2021/01/20 08:48:36;;;;;;;6.50;5.80;;;8.20;99.90;;;;;;4100781;28;20499;-75
2021/01/20 08:50:47;;;;;;;6.50;4.85;;;8.10;99.90;;;;;;4125836;28;20038;-75
2021/01/20 08:52:52;;;;;;;8.43;5.07;;;8.10;99.90;;;;;;4125561;28;20038;-74
2021/01/20 08:54:52;;;;;;;8.25;4.47;;;8.10;99.90;;;;;;4123679;28;20034;-75
2021/01/20 08:57:13;;;;;;;8.13;4.90;;;8.10;99.90;;;;;;4122384;28;20479;-74
2021/01/20 08:59:14;;;;;;;5.95;4.78;;;8.10;99.90;;;;;;4117957;28;20038;-74
2021/01/20 09:01:15;;;;;;;6.28;4.93;;;8.20;99.90;;;;;;4117403;28;20039;-74
2021/01/20 09:03:17;;;;;;;5.72;5.13;;;8.20;99.90;;;;;;4127518;28;20038;-75
2021/01/20 09:05:31;;;;;;;7.45;5.13;;;8.20;99.90;;;;;;4125306;28;20572;-74
2021/01/20 09:07:32;;;;;;;5.63;3.97;;;8.20;99.90;;;;;;4127659;28;20587;-75
2021/01/20 09:09:33;;;;;;;8.60;5.30;;;8.20;99.90;;;;;;4128015;28;20023;-75
2021/01/20 09:11:39;;;;;;;6.05;4.60;;;8.20;99.90;;;;;;4123589;28;20098;-74
2021/01/20 09:13:40;;;;;;;4.85;4.13;;;8.30;99.90;;;;;;4113827;28;20035;-74
2021/01/20 09:15:41;;;;;;;5.78;4.75;;;8.40;99.90;;;;;;4113848;28;20054;-75
2021/01/20 09:17:41;;;;;;;5.97;4.75;;;8.40;99.90;;;;;;4112092;28;20244;-74
2021/01/20 09:19:42;;;;;;;7.53;5.20;;;8.40;99.90;;;;;;4131161;28;20102;-75
2021/01/20 09:21:44;;;;;;;5.03;4.20;;;8.40;99.90;;;;;;4115444;28;20418;-75
2021/01/20 09:23:45;;;;;;;4.70;4.30;;;8.50;99.90;;;;;;4113584;28;20482;-74
2021/01/20 09:25:46;;;;;;;5.50;4.85;;;8.40;99.90;;;;;;4122955;28;20033;-75
2021/01/20 09:27:47;;;;;;;6.97;5.15;;;8.40;99.90;;;;;;4123780;28;20031;-74
2021/01/20 09:29:47;;;;;;;5.38;3.65;;;8.40;99.90;;;;;;4125561;28;20025;-75
2021/01/20 09:31:48;;;;;;;6.43;4.32;;;8.40;99.90;;;;;;4127045;28;20034;-74
2021/01/20 09:33:48;;;;;;;5.70;3.95;;;8.50;99.90;;;;;;4124018;28;20470;-75
2021/01/20 09:35:49;;;;;;;6.57;4.80;;;8.50;99.90;;;;;;4123791;28;20022;-75
2021/01/20 09:37:53;;;;;;;6.13;4.25;;;8.60;99.90;;;;;;4115913;28;20031;-74
2021/01/20 09:39:53;;;;;;;;;;;8.60;99.90;;;;;;4115693;28;20039;-74
2021/01/20 09:41:54;;;;;;;6.78;4.57;;;8.70;99.90;;;;;;4117373;28;20428;-76
2021/01/20 09:43:55;;;;;;;5.53;4.13;;;8.80;99.90;;;;;;4116375;28;20053;-75
2021/01/20 09:45:57;;;;;;;6.60;4.28;;;8.90;99.90;;;;;;4142814;28;20045;-75
2021/01/20 09:48:06;;;;;;;4.32;3.65;;;8.90;99.90;;;;;;4126249;28;20134;-75
2021/01/20 09:50:08;;;;;;;5.43;4.10;;;9.00;99.90;;;;;;4121391;28;20034;-75
2021/01/20 09:52:10;;;;;;;6.57;4.72;;;9.00;99.90;;;;;;4117680;28;20416;-75
2021/01/20 09:54:11;;;;;;;5.05;4.03;;;9.20;99.90;;;;;;4126427;28;20030;-75
2021/01/20 09:56:11;;;;;;;7.13;4.05;;;9.20;99.90;;;;;;4126708;28;20418;-75
2021/01/20 09:58:12;;;;;;;7.32;5.00;;;9.30;99.90;;;;;;4139979;28;20026;-75
2021/01/20 10:00:13;;;;;;;6.97;3.70;;;9.30;99.90;;;;;;4119178;28;20042;-76
2021/01/20 10:02:14;;;;;;;7.63;5.22;;;9.30;99.90;;;;;;4154298;28;20030;-76
2021/01/20 10:04:15;;;;;;;4.93;3.67;;;9.30;99.90;;;;;;4122378;28;20104;-76
2021/01/20 10:06:15;;;;;;;4.00;3.50;;;9.30;99.90;;;;;;4128373;28;20525;-76
2021/01/20 10:08:16;;;;;;;5.07;3.80;;;9.30;99.90;;;;;;4114682;28;20047;-75
2021/01/20 10:10:17;;;;;;;7.88;4.53;;;9.40;99.90;;;;;;4117407;28;20023;-74
2021/01/20 10:12:20;;;;;;;3.85;3.28;;;9.50;99.90;;;;;;4111888;28;20034;-75
2021/01/20 10:14:20;;;;;;;5.90;3.78;;;9.50;99.90;;;;;;4117819;28;20107;-75
2021/01/20 10:16:21;;;;;;;9.07;4.20;;;9.40;99.90;;;;;;4118899;28;20129;-75
2021/01/20 10:18:23;;;;;;;6.65;4.68;;;9.40;99.90;;;;;;4123033;28;20431;-75
2021/01/20 10:20:24;;;;;;;7.68;3.58;;;9.40;99.90;;;;;;4127195;28;20023;-75
2021/01/20 10:22:25;;;;;;;5.10;3.88;;;9.50;99.90;;;;;;4119042;28;20027;-75
2021/01/20 10:24:25;;;;;;;3.92;3.47;;;9.50;99.90;;;;;;4123967;28;20034;-75
2021/01/20 10:26:27;;;;;;;5.32;3.38;;;9.50;99.90;;;;;;4118261;28;20035;-76
2021/01/20 10:28:28;;;;;;;7.03;4.45;;;9.50;99.90;;;;;;4127009;28;20034;-74
2021/01/20 10:30:29;;;;;;;5.82;3.75;;;9.50;99.90;;;;;;4124125;28;20038;-75
2021/01/20 10:32:30;;;;;;;7.90;4.07;;;9.60;99.90;;;;;;4122097;28;20064;-75
2021/01/20 10:34:31;;;;;;;6.65;3.50;;;9.60;99.90;;;;;;4115748;28;20030;-75
2021/01/20 10:36:32;;;;;;;4.60;3.90;;;9.60;99.90;;;;;;4121255;28;20037;-75
2021/01/20 10:38:33;;;;;;;4.15;3.65;;;9.70;99.90;;;;;;4121519;28;20038;-76
2021/01/20 10:40:34;;;;;;;4.90;3.50;;;9.80;99.90;;;;;;4123976;28;20515;-75
2021/01/20 10:42:35;;;;;;;4.93;3.70;;;9.80;99.90;;;;;;4123075;28;20482;-75